createdAt,value
2018-11-10T00:02:24.807Z,15.43
2018-11-10T00:04:55.145Z,14.20
2018-11-10T00:07:25.042Z,16.87
2018-11-10T00:09:54.949Z,16.27
2018-11-10T00:12:24.916Z,17.10
2018-11-10T00:14:54.799Z,15.30
2018-11-10T00:17:24.904Z,15.57
2018-11-10T00:19:54.733Z,17.80
2018-11-10T00:22:24.634Z,17.37
2018-11-10T00:24:54.570Z,18.07
2018-11-10T00:27:24.781Z,16.80
2018-11-10T00:29:54.631Z,17.87
2018-11-10T00:32:24.535Z,16.67
2018-11-10T00:34:54.481Z,17.93
2018-11-10T00:37:24.337Z,16.47
2018-11-10T00:39:54.218Z,17.20
2018-11-10T00:42:24.135Z,16.60
2018-11-10T00:44:54.331Z,17.30
2018-11-10T00:47:24.390Z,16.90
2018-11-10T00:49:54.267Z,18.33
2018-11-10T00:52:24.228Z,17.17
2018-11-10T00:54:54.429Z,16.87
2018-11-10T00:57:24.402Z,18.57
2018-11-10T00:59:54.639Z,17.20
2018-11-10T01:02:24.727Z,17.10
2018-11-10T01:04:54.915Z,18.90
2018-11-10T01:07:24.735Z,17.87
2018-11-10T01:09:54.988Z,16.63
2018-11-10T01:12:24.923Z,18.60
2018-11-10T01:14:54.885Z,16.73
2018-11-10T01:17:25.044Z,16.57
2018-11-10T01:19:55.141Z,17.03
2018-11-10T01:22:25.287Z,16.27
2018-11-10T01:24:55.250Z,17.10
2018-11-10T01:27:25.158Z,16.13
2018-11-10T01:29:55.138Z,17.20
2018-11-10T01:32:25.019Z,15.87
2018-11-10T01:34:55.254Z,15.50
2018-11-10T01:37:25.540Z,17.50
2018-11-10T01:39:55.300Z,15.20
2018-11-10T01:42:25.156Z,16.57
2018-11-10T01:44:54.996Z,16.50
2018-11-10T01:47:25.161Z,15.10
2018-11-10T01:49:55.088Z,16.73
2018-11-10T01:52:25.506Z,15.83
2018-11-10T01:54:55.639Z,16.77
2018-11-10T01:57:25.489Z,15.07
2018-11-10T01:59:55.396Z,14.63
2018-11-10T02:02:25.348Z,15.37
2018-11-10T02:04:55.311Z,14.60
2018-11-10T02:07:25.226Z,14.03
2018-11-10T02:09:55.096Z,13.43
2018-11-10T02:12:25.142Z,14.07
2018-11-10T02:14:55.287Z,13.73
2018-11-10T02:17:25.273Z,13.23
2018-11-10T02:19:55.402Z,12.00
2018-11-10T02:22:25.601Z,11.90
2018-11-10T02:24:55.844Z,11.30
2018-11-10T02:27:25.904Z,12.27
2018-11-10T02:29:56.006Z,11.30
2018-11-10T02:32:25.925Z,11.63
2018-11-10T02:34:55.769Z,11.50
2018-11-10T02:37:25.794Z,12.40
2018-11-10T02:39:55.732Z,10.60
2018-11-10T02:42:25.956Z,11.77
2018-11-10T02:44:55.728Z,10.87
2018-11-10T02:47:25.720Z,10.53
2018-11-10T02:49:55.884Z,10.50
2018-11-10T02:52:26.095Z,11.30
2018-11-10T02:54:55.973Z,9.10
2018-11-10T02:57:25.802Z,10.37
2018-11-10T02:59:56.123Z,9.53
2018-11-10T03:02:26.140Z,9.00
2018-11-10T03:04:56.205Z,8.80
2018-11-10T03:07:26.044Z,9.10
2018-11-10T03:09:55.850Z,9.37
2018-11-10T03:12:25.827Z,8.87
2018-11-10T03:14:55.745Z,8.70
2018-11-10T03:17:26.037Z,7.87
2018-11-10T03:19:55.891Z,8.13
2018-11-10T03:22:26.025Z,7.70
2018-11-10T03:24:55.808Z,6.90
2018-11-10T03:27:25.728Z,9.57
2018-11-10T03:29:55.639Z,8.20
2018-11-10T03:32:25.744Z,8.10
2018-11-10T03:34:55.895Z,8.63
2018-11-10T03:37:26.127Z,8.13
2018-11-10T03:39:56.121Z,8.53
2018-11-10T03:42:26.055Z,8.47
2018-11-10T03:44:55.959Z,8.13
2018-11-10T03:47:25.793Z,7.47
2018-11-10T03:49:55.758Z,7.90
2018-11-10T03:52:25.929Z,6.70
2018-11-10T03:54:55.953Z,7.00
2018-11-10T03:57:25.945Z,7.57
2018-11-10T03:59:55.722Z,8.40
2018-11-10T04:02:25.578Z,7.93
2018-11-10T04:04:55.439Z,7.70
2018-11-10T04:07:51.143Z,6.80
2018-11-10T04:10:21.364Z,5.80
2018-11-10T04:12:51.345Z,7.10
2018-11-10T04:15:21.510Z,5.73
2018-11-10T04:17:51.394Z,6.33
2018-11-10T04:20:21.282Z,6.33
2018-11-10T04:22:51.246Z,6.17
2018-11-10T04:25:21.096Z,5.43
2018-11-10T04:27:51.113Z,6.23
2018-11-10T04:30:21.271Z,5.40
2018-11-10T04:32:51.103Z,5.83
2018-11-10T04:35:21.434Z,6.20
2018-11-10T04:37:51.532Z,5.57
2018-11-10T04:40:21.628Z,5.30
2018-11-10T04:42:51.620Z,5.40
2018-11-10T04:45:21.359Z,5.60
2018-11-10T04:47:51.244Z,6.90
2018-11-10T04:50:21.568Z,6.70
2018-11-10T04:52:51.349Z,5.23
2018-11-10T04:55:22.103Z,5.20
2018-11-10T04:57:51.965Z,6.07
2018-11-10T05:00:22.105Z,6.07
2018-11-10T05:02:51.884Z,5.67
2018-11-10T05:05:21.782Z,5.60
2018-11-10T05:07:51.679Z,5.30
2018-11-10T05:10:21.994Z,5.10
2018-11-10T05:12:52.142Z,5.20
2018-11-10T05:15:22.464Z,5.53
2018-11-10T05:17:52.583Z,5.20
2018-11-10T05:20:22.440Z,5.20
2018-11-10T05:22:52.475Z,4.87
2018-11-10T05:25:22.490Z,5.43
2018-11-10T05:27:52.785Z,5.47
2018-11-10T05:30:22.677Z,5.40
2018-11-10T05:32:52.714Z,5.37
2018-11-10T05:35:22.588Z,5.93
2018-11-10T05:37:52.783Z,5.17
2018-11-10T05:40:22.661Z,6.70
2018-11-10T05:42:53.387Z,5.73
2018-11-10T05:45:24.074Z,6.20
2018-11-10T05:47:54.390Z,6.10
2018-11-10T05:50:24.301Z,5.23
2018-11-10T05:52:54.437Z,5.10
2018-11-10T05:55:25.118Z,5.40
2018-11-10T05:57:55.300Z,5.63
2018-11-10T06:00:25.460Z,6.83
2018-11-10T06:02:55.789Z,5.23
2018-11-10T06:05:25.651Z,5.90
2018-11-10T06:07:55.486Z,4.87
2018-11-10T06:10:25.486Z,4.70
2018-11-10T06:12:55.421Z,5.10
2018-11-10T06:15:25.460Z,5.57
2018-11-10T06:17:55.876Z,5.57
2018-11-10T06:20:26.656Z,5.43
2018-11-10T06:22:57.494Z,5.60
2018-11-10T06:25:28.733Z,5.83
2018-11-10T06:27:59.485Z,6.10
2018-11-10T06:30:29.861Z,6.87
2018-11-10T06:32:59.788Z,6.67
2018-11-10T06:35:29.714Z,6.50
2018-11-10T06:37:59.849Z,6.80
2018-11-10T06:40:33.583Z,7.40
2018-11-10T06:43:03.750Z,6.50
2018-11-10T06:45:33.995Z,6.90
2018-11-10T06:48:04.203Z,8.60
2018-11-10T06:50:33.975Z,6.83
2018-11-10T06:53:04.313Z,7.40
2018-11-10T06:55:34.591Z,7.50
2018-11-10T06:58:04.660Z,8.27
2018-11-10T07:00:34.544Z,8.83
2018-11-10T07:03:04.665Z,7.73
2018-11-10T07:05:34.549Z,9.30
2018-11-10T07:08:04.468Z,8.00
2018-11-10T07:10:34.688Z,7.50
2018-11-10T07:13:04.508Z,8.50
2018-11-10T07:15:34.297Z,9.63
2018-11-10T07:18:04.401Z,9.17
2018-11-10T07:20:34.152Z,8.70
2018-11-10T07:23:03.953Z,8.90
2018-11-10T07:25:35.935Z,7.90
2018-11-10T07:28:05.972Z,9.30
2018-11-10T07:30:35.856Z,9.27
2018-11-10T07:33:06.145Z,7.53
2018-11-10T07:35:35.976Z,9.77
2018-11-10T07:38:19.391Z,10.00
2018-11-10T07:40:50.331Z,8.60
2018-11-10T07:43:20.126Z,9.07
2018-11-10T07:45:50.072Z,9.50
2018-11-10T07:48:20.364Z,9.47
2018-11-10T07:50:50.632Z,10.03
2018-11-10T07:53:21.129Z,10.40
2018-11-10T07:55:51.404Z,10.30
2018-11-10T07:58:21.358Z,10.30
2018-11-10T08:00:51.338Z,9.20
2018-11-10T08:03:21.395Z,8.83
2018-11-10T08:05:51.234Z,8.70
2018-11-10T08:08:21.064Z,9.77
2018-11-10T08:10:50.938Z,8.90
2018-11-10T08:13:20.696Z,9.03
2018-11-10T08:15:51.201Z,8.67
2018-11-10T08:18:21.270Z,8.57
2018-11-10T08:20:51.096Z,7.47
2018-11-10T08:23:20.981Z,7.90
2018-11-10T08:25:50.844Z,7.93
2018-11-10T08:28:21.597Z,7.60
2018-11-10T08:30:51.539Z,7.80
2018-11-10T08:33:21.452Z,7.90
2018-11-10T08:35:51.814Z,7.50
2018-11-10T08:38:21.587Z,7.77
2018-11-10T08:40:51.374Z,7.37
2018-11-10T08:43:21.668Z,6.33
2018-11-10T08:45:51.503Z,7.27
2018-11-10T08:48:21.538Z,7.20
2018-11-10T08:50:51.376Z,6.90
2018-11-10T08:53:21.583Z,7.40
2018-11-10T08:55:51.520Z,6.07
2018-11-10T08:58:21.695Z,7.13
2018-11-10T09:00:52.219Z,6.60
2018-11-10T09:03:22.388Z,6.63
2018-11-10T09:05:55.671Z,6.33
2018-11-10T09:08:25.851Z,6.27
2018-11-10T09:10:55.905Z,6.57
2018-11-10T09:13:25.749Z,6.43
2018-11-10T09:15:55.667Z,6.60
2018-11-10T09:18:27.020Z,5.63
2018-11-10T09:20:56.862Z,6.10
2018-11-10T09:23:26.901Z,6.13
2018-11-10T09:26:25.432Z,6.07
2018-11-10T09:28:55.604Z,7.37
2018-11-10T09:31:25.737Z,6.00
2018-11-10T09:33:55.833Z,6.57
2018-11-10T09:36:25.933Z,6.40
2018-11-10T09:38:55.985Z,7.80
2018-11-10T09:41:25.947Z,7.10
2018-11-10T09:43:55.979Z,6.73
2018-11-10T09:46:49.651Z,6.80
2018-11-10T09:49:19.578Z,6.13
2018-11-10T09:51:49.518Z,6.70
2018-11-10T09:54:41.786Z,6.23
2018-11-10T10:00:34.172Z,6.43
2018-11-10T10:03:06.275Z,7.23
2018-11-10T10:05:36.324Z,7.47
2018-11-10T10:08:17.743Z,6.20
2018-11-10T10:10:48.125Z,6.37
2018-11-10T10:13:18.617Z,7.03
2018-11-10T10:15:48.505Z,6.10
2018-11-10T10:18:22.452Z,5.93
2018-11-10T10:20:52.470Z,6.30
2018-11-10T10:23:22.619Z,6.30
2018-11-10T10:25:52.391Z,6.33
2018-11-10T10:28:25.582Z,6.70
2018-11-10T10:30:55.466Z,6.70
2018-11-10T10:33:25.453Z,5.90
2018-11-10T10:35:55.332Z,6.70
2018-11-10T10:38:25.452Z,5.87
2018-11-10T10:41:22.195Z,6.60
2018-11-10T10:47:08.875Z,6.60
2018-11-10T10:49:38.896Z,6.10
2018-11-10T10:52:09.300Z,5.53
2018-11-10T10:54:39.416Z,5.20
2018-11-10T10:57:14.994Z,5.83
2018-11-10T10:59:44.572Z,5.70
2018-11-10T11:02:19.255Z,6.30
2018-11-10T11:10:49.125Z,5.53
2018-11-10T11:13:18.991Z,5.77
2018-11-10T11:15:48.972Z,5.97
2018-11-10T11:21:19.011Z,5.43
2018-11-10T11:23:48.736Z,4.97
2018-11-10T11:26:19.730Z,5.30
2018-11-10T11:28:49.744Z,5.70
2018-11-10T11:31:21.130Z,5.93
2018-11-10T11:33:51.130Z,6.00
2018-11-10T11:36:24.776Z,5.60
2018-11-10T11:38:54.631Z,5.47
2018-11-10T11:41:24.481Z,5.67
2018-11-10T11:43:54.438Z,5.90
2018-11-10T11:46:50.679Z,6.00
2018-11-10T11:49:20.564Z,7.40
2018-11-10T11:51:50.652Z,5.73
2018-11-10T11:54:20.416Z,5.67
2018-11-10T11:56:54.254Z,7.07
2018-11-10T11:59:50.520Z,6.10
2018-11-10T12:02:21.136Z,6.97
2018-11-10T12:04:51.073Z,6.30
2018-11-10T12:07:24.510Z,6.87
2018-11-10T12:09:54.343Z,7.07
2018-11-10T12:12:27.261Z,7.63
2018-11-10T12:14:57.323Z,6.73
2018-11-10T12:17:27.178Z,7.30
2018-11-10T12:19:57.043Z,6.90
2018-11-10T12:22:26.843Z,7.53
2018-11-10T12:24:56.723Z,7.30
2018-11-10T12:30:32.177Z,6.50
2018-11-10T12:33:01.978Z,6.90
2018-11-10T12:35:31.880Z,6.30
2018-11-10T12:38:01.743Z,7.13
2018-11-10T12:40:37.515Z,7.67
2018-11-10T12:46:07.627Z,7.10
2018-11-10T12:48:37.508Z,6.97
2018-11-10T12:51:08.395Z,7.23
2018-11-10T12:53:38.185Z,7.60
2018-11-10T12:56:08.452Z,6.93
2018-11-10T12:58:38.985Z,7.80
2018-11-10T13:01:08.855Z,8.00
2018-11-10T13:03:39.552Z,6.87
2018-11-10T13:06:11.308Z,7.40
2018-11-10T13:08:41.058Z,7.30
2018-11-10T13:11:10.864Z,7.50
2018-11-10T13:16:49.601Z,5.90
2018-11-10T13:19:20.245Z,7.73
2018-11-10T13:24:50.032Z,6.27
2018-11-10T13:27:19.986Z,6.40
2018-11-10T13:29:49.850Z,6.27
2018-11-10T13:32:19.696Z,5.67
2018-11-10T13:35:23.540Z,6.60
2018-11-10T13:37:53.498Z,5.43
2018-11-10T13:40:23.419Z,4.93
2018-11-10T13:42:53.260Z,5.90
2018-11-10T13:45:23.299Z,5.60
2018-11-10T13:47:53.484Z,4.43
2018-11-10T13:50:27.116Z,5.87
2018-11-10T13:52:57.441Z,5.73
2018-11-10T13:55:26.905Z,5.37
2018-11-10T13:57:56.696Z,6.07
2018-11-10T14:00:26.713Z,5.50
2018-11-10T14:02:56.758Z,6.00
2018-11-10T14:05:27.509Z,5.07
2018-11-10T14:08:01.912Z,5.57
2018-11-10T14:10:32.447Z,5.43
2018-11-10T14:13:03.092Z,5.33
2018-11-10T14:15:33.174Z,5.83
2018-11-10T14:18:03.434Z,6.40
2018-11-10T14:20:33.661Z,5.33
2018-11-10T14:23:03.675Z,5.00
2018-11-10T14:25:33.892Z,5.00
2018-11-10T14:28:04.107Z,5.73
2018-11-10T14:30:34.895Z,5.70
2018-11-10T14:33:05.230Z,5.17
2018-11-10T14:35:35.348Z,5.63
2018-11-10T14:38:07.172Z,5.03
2018-11-10T14:40:37.116Z,4.60
2018-11-10T14:43:07.031Z,4.60
2018-11-10T14:45:36.823Z,4.33
2018-11-10T14:48:06.825Z,5.20
2018-11-10T14:50:50.225Z,4.37
2018-11-10T14:53:24.425Z,5.50
2018-11-10T14:55:54.580Z,4.10
2018-11-10T14:58:24.605Z,4.93
2018-11-10T15:00:56.531Z,3.97
2018-11-10T15:03:27.216Z,5.23
2018-11-10T15:05:57.116Z,4.00
2018-11-10T15:08:26.864Z,4.17
2018-11-10T15:10:56.925Z,3.80
2018-11-10T15:13:26.742Z,3.90
2018-11-10T15:15:57.010Z,4.53
2018-11-10T15:18:26.982Z,4.57
2018-11-10T15:20:57.937Z,4.27
2018-11-10T15:23:28.286Z,4.40
2018-11-10T15:26:23.660Z,3.80
2018-11-10T15:28:53.786Z,4.70
2018-11-10T15:31:34.372Z,4.47
2018-11-10T15:37:22.397Z,4.70
2018-11-10T15:39:52.660Z,4.37
2018-11-10T15:42:23.067Z,5.60
2018-11-10T15:47:36.860Z,4.67
2018-11-10T15:50:09.584Z,4.20
2018-11-10T15:52:42.049Z,4.37
2018-11-10T15:55:16.663Z,3.33
2018-11-10T15:57:50.828Z,4.43
2018-11-10T16:00:22.029Z,4.17
2018-11-10T16:03:09.299Z,3.90
2018-11-10T16:05:39.568Z,4.15
2018-11-10T16:08:35.071Z,3.40
2018-11-10T16:11:24.224Z,3.90
2018-11-10T16:13:55.372Z,3.67
2018-11-10T16:16:25.506Z,3.70
2018-11-10T16:18:56.590Z,4.10
2018-11-10T16:21:27.210Z,4.07
2018-11-10T16:30:23.451Z,4.03
2018-11-10T16:39:13.537Z,3.30
2018-11-10T16:44:30.373Z,3.07
2018-11-10T16:47:00.468Z,3.17
2018-11-10T16:49:30.817Z,3.70
2018-11-10T16:52:00.879Z,3.20
2018-11-10T16:54:31.035Z,3.40
2018-11-10T16:57:01.058Z,2.80
2018-11-10T16:59:32.130Z,3.20
2018-11-10T17:02:02.282Z,3.30
2018-11-10T17:04:32.917Z,3.93
2018-11-10T17:07:03.049Z,3.17
2018-11-10T17:09:33.030Z,2.73
2018-11-10T17:12:02.837Z,2.30
2018-11-10T17:14:32.851Z,2.70
2018-11-10T17:17:03.596Z,3.03
2018-11-10T17:19:34.760Z,3.37
2018-11-10T17:22:06.367Z,2.23
2018-11-10T17:24:37.590Z,3.20
2018-11-10T17:27:08.524Z,2.50
2018-11-10T17:29:38.561Z,3.13
2018-11-10T17:32:09.091Z,2.43
2018-11-10T17:34:39.005Z,3.03
2018-11-10T17:37:08.817Z,2.67
2018-11-10T17:39:40.027Z,2.47
2018-11-10T17:42:09.939Z,2.47
2018-11-10T17:44:39.819Z,2.70
2018-11-10T17:47:10.667Z,2.40
2018-11-10T17:49:40.810Z,2.60
2018-11-10T17:52:10.836Z,2.67
2018-11-10T17:54:40.590Z,2.20
2018-11-10T17:57:10.638Z,2.23
2018-11-10T17:59:41.071Z,2.40
2018-11-10T18:02:11.316Z,2.33
2018-11-10T18:04:41.222Z,2.40
2018-11-10T18:07:11.144Z,2.40
2018-11-10T18:09:42.610Z,2.67
2018-11-10T18:12:13.236Z,2.17
2018-11-10T18:14:43.568Z,2.10
2018-11-10T18:17:14.008Z,2.30
2018-11-10T18:19:43.978Z,2.50
2018-11-10T18:22:13.967Z,2.37
2018-11-10T18:24:44.262Z,2.13
2018-11-10T18:27:14.273Z,2.53
2018-11-10T18:29:44.556Z,2.77
2018-11-10T18:32:14.547Z,3.03
2018-11-10T18:34:44.643Z,2.87
2018-11-10T18:37:14.897Z,3.00
2018-11-10T18:39:45.023Z,2.53
2018-11-10T18:42:15.193Z,2.80
2018-11-10T18:47:57.523Z,2.30
2018-11-10T18:50:30.696Z,2.83
2018-11-10T18:59:37.351Z,2.23
2018-11-10T19:02:15.283Z,2.03
2018-11-10T19:04:47.324Z,2.80
2018-11-10T19:07:21.633Z,3.13
2018-11-10T19:16:11.395Z,3.07
2018-11-10T19:18:47.355Z,2.93
2018-11-10T19:21:17.976Z,3.20
2018-11-10T19:23:56.137Z,3.20
2018-11-10T19:26:26.666Z,3.23
2018-11-10T19:28:56.938Z,3.97
2018-11-10T19:31:56.289Z,3.70
2018-11-10T19:34:31.618Z,3.57
2018-11-10T19:37:01.849Z,3.90
2018-11-10T19:39:32.939Z,3.90
2018-11-10T19:42:02.841Z,3.83
2018-11-10T19:44:32.994Z,3.93
2018-11-10T19:47:02.894Z,4.40
2018-11-10T19:49:33.261Z,4.10
2018-11-10T19:52:03.958Z,3.67
2018-11-10T19:54:33.875Z,4.13
2018-11-10T19:57:14.575Z,3.87
2018-11-10T19:59:50.416Z,3.90
2018-11-10T20:02:20.874Z,4.37
2018-11-10T20:04:50.882Z,4.03
2018-11-10T20:07:22.079Z,3.80
2018-11-10T20:10:14.824Z,4.30
2018-11-10T20:12:46.260Z,3.73
2018-11-10T20:15:17.172Z,44.13
2018-11-10T20:17:47.298Z,6.10
2018-11-10T20:20:18.366Z,4.77
2018-11-10T20:22:49.534Z,3.70
2018-11-10T20:25:20.072Z,3.83
2018-11-10T20:27:54.846Z,3.93
2018-11-10T20:30:29.319Z,3.80
2018-11-10T20:36:08.268Z,4.70
2018-11-10T20:38:39.360Z,3.77
2018-11-10T20:41:10.187Z,4.23
2018-11-10T20:43:42.515Z,2.90
2018-11-10T20:46:19.557Z,3.23
2018-11-10T20:48:49.930Z,2.97
2018-11-10T20:51:22.387Z,3.50
2018-11-10T20:53:54.005Z,3.30
2018-11-10T20:56:24.409Z,3.00
2018-11-10T20:58:56.596Z,3.47
2018-11-10T21:01:27.161Z,3.80
2018-11-10T21:03:59.987Z,2.80
2018-11-10T21:06:42.702Z,3.23
2018-11-10T21:09:13.704Z,3.20
2018-11-10T21:11:43.827Z,3.60
2018-11-10T21:14:30.043Z,2.83
2018-11-10T21:17:00.258Z,3.30
2018-11-10T21:19:31.807Z,3.20
2018-11-10T21:22:01.753Z,3.77
2018-11-10T21:24:33.742Z,3.17
2018-11-10T21:27:07.139Z,2.90
2018-11-10T21:29:37.070Z,3.20
2018-11-10T21:32:14.416Z,3.87
2018-11-10T21:34:44.875Z,3.27
2018-11-10T21:37:15.849Z,3.50
2018-11-10T21:39:45.731Z,3.90
2018-11-10T21:42:15.816Z,3.57
2018-11-10T21:44:45.756Z,3.30
2018-11-10T21:47:15.846Z,2.93
2018-11-10T21:49:46.124Z,3.60
2018-11-10T21:52:16.241Z,3.83
2018-11-10T21:54:46.136Z,3.13
2018-11-10T21:57:16.521Z,3.70
2018-11-10T21:59:46.582Z,4.13
2018-11-10T22:02:16.670Z,4.00
2018-11-10T22:04:46.774Z,3.43
2018-11-10T22:07:16.754Z,3.47
2018-11-10T22:09:46.888Z,4.07
2018-11-10T22:12:16.950Z,3.63
2018-11-10T22:14:47.157Z,3.73
2018-11-10T22:17:17.320Z,3.70
2018-11-10T22:19:47.378Z,3.40
2018-11-10T22:22:18.224Z,3.13
2018-11-10T22:24:48.485Z,3.60
2018-11-10T22:27:18.617Z,3.07
2018-11-10T22:29:48.473Z,3.10
2018-11-10T22:32:18.645Z,2.77
2018-11-10T22:34:48.792Z,2.50
2018-11-10T22:37:18.908Z,3.07
2018-11-10T22:39:49.927Z,2.50
2018-11-10T22:42:20.004Z,2.50
2018-11-10T22:44:50.317Z,2.50
2018-11-10T22:47:20.329Z,2.20
2018-11-10T22:49:51.204Z,2.67
2018-11-10T22:52:21.496Z,3.03
2018-11-10T22:54:51.671Z,2.13
2018-11-10T22:57:21.898Z,2.97
2018-11-10T22:59:51.976Z,2.60
2018-11-10T23:02:22.045Z,2.30
2018-11-10T23:04:53.979Z,2.83
2018-11-10T23:07:23.897Z,2.53
2018-11-10T23:09:54.945Z,2.73
2018-11-10T23:12:24.882Z,2.93
2018-11-10T23:14:55.836Z,2.87
2018-11-10T23:17:26.077Z,2.77
2018-11-10T23:19:56.258Z,2.87
2018-11-10T23:22:26.297Z,2.43
2018-11-10T23:24:56.480Z,2.10
2018-11-10T23:27:26.672Z,2.40
2018-11-10T23:29:56.720Z,2.20
2018-11-10T23:32:27.120Z,2.27
2018-11-10T23:34:58.306Z,2.00
2018-11-10T23:37:28.463Z,2.63
2018-11-10T23:39:58.479Z,1.87
2018-11-10T23:42:28.452Z,2.27
2018-11-10T23:44:58.497Z,1.77
2018-11-10T23:47:28.570Z,1.50
2018-11-10T23:49:58.667Z,2.37
2018-11-10T23:52:28.585Z,1.80
2018-11-10T23:54:58.759Z,1.63
2018-11-10T23:57:28.830Z,1.70
2018-11-10T23:59:58.984Z,1.80
